St. James — WDG2626 — position and weather

sailwx.info

Track history (hours):
 
Tides and Currents Weather Stations Pressure Air Temp Water Temp Dewpoint Dewpoint Depression Visibility Wind Speed Wind Dir Waves Ship Positions

St. James

Owner: St James Services LLC, Convent, LA. More information available from US FCC via Universal Licensing System and Coast Guard Vessel Documentation Center.

Last reported at 2018-Feb-24 03:54 UTC. Time now 2018-Feb-25 17:49 UTC.
Position N 36°57' W 076°22'.

Length 23 m; draft 3 m.

Type: Other ship. MMSI: 367517550.

Date/timePositionNaut miles runAvg speedWind from/ knotsBaromVisibWave heightAir tempDewpointWater temp
2018-Feb-24 03:54N 36°57' W 076°22'3 5.0
2018-Feb-24 03:20N 36°54' W 076°20'2 4.5
2018-Feb-24 02:59N 36°53' W 076°20'1 1.2
2018-Feb-24 02:12N 36°52' W 076°21'1 2.9
2018-Feb-24 01:59N 36°52' W 076°20'3 5.9
2018-Feb-24 01:30N 36°50' W 076°18'2 4.0
2018-Feb-24 01:00N 36°49' W 076°17'1 2.4
2018-Feb-24 00:30N 36°47' W 076°18'2 3.1
2018-Feb-24 00:00N 36°46' W 076°18'0 0.0
2018-Feb-23 23:30N 36°46' W 076°18'0 0.3
2018-Feb-23 23:00N 36°46' W 076°18'1 1.5
2018-Feb-23 22:30N 36°45' W 076°18'0 0.4
2018-Feb-23 22:00N 36°45' W 076°18'2 3.5
2018-Feb-23 21:30N 36°44' W 076°16'1 1.8
2018-Feb-23 20:42N 36°43' W 076°15'0 0.2
2018-Feb-23 20:25N 36°43' W 076°15'0 0.0
2018-Feb-22 23:17N 36°43' W 076°14'1 1.4
2018-Feb-22 22:44N 36°44' W 076°15'1 3.3
2018-Feb-22 22:30N 36°44' W 076°16'2 3.3
2018-Feb-22 22:00N 36°45' W 076°18'2 3.7
2018-Feb-22 21:30N 36°46' W 076°18'1 2.3
2018-Feb-22 21:00N 36°47' W 076°18'1 2.2
2018-Feb-22 20:30N 36°48' W 076°17'0 0.3
2018-Feb-22 20:00N 36°49' W 076°17'0 0.0
2018-Feb-22 19:30N 36°49' W 076°17'0 0.0
2018-Feb-22 19:00N 36°49' W 076°17'0 0.0
2018-Feb-22 18:30N 36°49' W 076°17'0 0.0
2018-Feb-22 18:00N 36°49' W 076°17'0 0.0
2018-Feb-22 17:30N 36°49' W 076°17'3 5.5
2018-Feb-22 16:59N 36°51' W 076°18'4 6.5
2018-Feb-22 16:25N 36°55' W 076°20'3 6.0
2018-Feb-22 15:56N 36°57' W 076°20'0 0.2
2018-Feb-22 15:29N 36°57' W 076°20'1 1.1
2018-Feb-22 14:54N 36°57' W 076°21'0 0.3
2018-Feb-22 14:24N 36°57' W 076°21'0 0.1
2018-Feb-22 13:52N 36°57' W 076°21'1 1.7
2018-Feb-22 13:24N 36°56' W 076°20'4 6.4
2018-Feb-22 12:50N 36°53' W 076°20'2 5.9
2018-Feb-22 12:29N 36°51' W 076°18'3 4.9
2018-Feb-22 11:53N 36°50' W 076°15'0 0.4
2018-Feb-22 11:30N 36°50' W 076°15'1 2.6
2018-Feb-22 11:00N 36°50' W 076°17'2 3.9
2018-Feb-22 10:30N 36°49' W 076°17'0 0.0
2018-Feb-21 21:07N 36°49' W 076°17'0 0.0
2018-Feb-21 21:00N 36°49' W 076°17'1 1.2
2018-Feb-21 20:30N 36°49' W 076°17'2 3.1
2018-Feb-21 19:43N 36°51' W 076°19'1 5.8
2018-Feb-21 19:30N 36°50' W 076°18'3 5.5
2018-Feb-21 19:00N 36°48' W 076°18'2 3.1
2018-Feb-21 18:30N 36°46' W 076°18'0 0.3
2018-Feb-21 18:00N 36°46' W 076°18'0 0.0
2018-Feb-21 17:30N 36°46' W 076°18'1 1.6
2018-Feb-21 17:00N 36°47' W 076°18'1 2.6
2018-Feb-21 16:30N 36°48' W 076°18'3 6.0
2018-Feb-21 16:00N 36°51' W 076°18'1 2.9
2018-Feb-21 15:30N 36°52' W 076°19'1 2.2
2018-Feb-21 14:55N 36°52' W 076°21'2 4.0
2018-Feb-21 14:30N 36°54' W 076°20'2 2.8
2018-Feb-21 13:42N 36°56' W 076°20'0 0.1
2018-Feb-21 13:27N 36°56' W 076°20'0 0.2
2018-Feb-21 12:58N 36°56' W 076°20'0 0.1
2018-Feb-21 12:28N 36°56' W 076°20'0 0.3
2018-Feb-21 11:56N 36°56' W 076°20'2 3.9
2018-Feb-21 11:27N 36°54' W 076°20'2 4.6
2018-Feb-21 10:57N 36°52' W 076°19'2 5.0
2018-Feb-21 10:30N 36°50' W 076°17'2 2.6
2018-Feb-21 09:49N 36°50' W 076°15'1 3.9
2018-Feb-21 09:30N 36°50' W 076°16'2 3.9
2018-Feb-21 09:00N 36°49' W 076°17'0 0.0
2018-Feb-20 15:53N 36°49' W 076°17'0 0.0
2018-Feb-20 15:30N 36°49' W 076°17'0 0.0
2018-Feb-20 15:01N 36°49' W 076°17'2 3.9
2018-Feb-20 14:29N 36°51' W 076°18'3 4.8
2018-Feb-20 13:50N 36°52' W 076°21'0 0.2
2018-Feb-20 13:28N 36°52' W 076°21'0 0.6
2018-Feb-20 12:59N 36°53' W 076°21'3 5.8
2018-Feb-20 12:31N 36°51' W 076°18'2 4.8
2018-Feb-20 12:01N 36°49' W 076°17'0 0.0
2018-Feb-20 11:30N 36°49' W 076°17'0 0.0
2018-Feb-20 11:01N 36°49' W 076°17'0 0.0
2018-Feb-20 10:31N 36°49' W 076°17'0 0.0
2018-Feb-20 10:00N 36°49' W 076°17'0 0.0
2018-Feb-20 09:31N 36°49' W 076°17'0 0.0
2018-Feb-20 09:01N 36°49' W 076°17'0 0.0
2018-Feb-20 08:30N 36°49' W 076°17'0 0.0
2018-Feb-20 08:00N 36°49' W 076°17'0 0.0
2018-Feb-20 07:30N 36°49' W 076°17'0 0.0
2018-Feb-20 07:00N 36°49' W 076°17'0 0.0
2018-Feb-20 06:31N 36°49' W 076°17'0 0.0
2018-Feb-20 06:00N 36°49' W 076°17'0 0.0
2018-Feb-20 05:30N 36°49' W 076°17'0 0.0
2018-Feb-20 05:00N 36°49' W 076°17'0 0.0
2018-Feb-20 04:31N 36°49' W 076°17'0 0.0
2018-Feb-20 04:00N 36°49' W 076°17'0 0.0
2018-Feb-20 03:30N 36°49' W 076°17'0 0.0
2018-Feb-20 03:01N 36°49' W 076°17'0 0.0
2018-Feb-20 02:30N 36°49' W 076°17'0 0.0
2018-Feb-20 02:00N 36°49' W 076°17'0 0.0
2018-Feb-20 01:31N 36°49' W 076°17'0 0.0
2018-Feb-20 01:00N 36°49' W 076°17'0 0.0
2018-Feb-20 00:30N 36°49' W 076°17'0 0.0
2018-Feb-20 00:00N 36°49' W 076°17'0 0.0
2018-Feb-19 23:30N 36°49' W 076°17'0 0.0
2018-Feb-19 23:01N 36°49' W 076°17'0 0.0
2018-Feb-19 22:31N 36°49' W 076°17'0 0.0
2018-Feb-19 22:00N 36°49' W 076°17'0 0.0
2018-Feb-19 21:30N 36°49' W 076°17'0 0.0
2018-Feb-19 21:00N 36°49' W 076°17'0 0.0
2018-Feb-19 20:30N 36°49' W 076°17'0 0.0
2018-Feb-19 20:00N 36°49' W 076°17'0 0.0
2018-Feb-19 19:31N 36°49' W 076°17'0 0.0
2018-Feb-19 19:00N 36°49' W 076°17'0 0.0
2018-Feb-19 18:30N 36°49' W 076°17'0 0.0
2018-Feb-19 18:01N 36°49' W 076°17'0 0.0
2018-Feb-19 17:31N 36°49' W 076°17'0 0.0
2018-Feb-19 17:00N 36°49' W 076°17'0 0.0
2018-Feb-19 16:31N 36°49' W 076°17'0 0.0
2018-Feb-19 16:01N 36°49' W 076°17'0 0.0
2018-Feb-19 15:31N 36°49' W 076°17'0 0.0
2018-Feb-19 15:01N 36°49' W 076°17'0 0.0
2018-Feb-19 14:31N 36°49' W 076°17'0 0.0
2018-Feb-19 14:01N 36°49' W 076°17'0 0.0
2018-Feb-19 13:31N 36°49' W 076°17'0 0.0
2018-Feb-19 13:00N 36°49' W 076°17'0 0.0
2018-Feb-19 12:31N 36°49' W 076°17'0 0.0
2018-Feb-19 12:01N 36°49' W 076°17'0 0.0
2018-Feb-19 11:31N 36°49' W 076°17'0 0.0
2018-Feb-19 11:00N 36°49' W 076°17'0 0.0
2018-Feb-19 10:31N 36°49' W 076°17'0 0.0
2018-Feb-19 10:01N 36°49' W 076°17'0 0.0
2018-Feb-19 09:30N 36°49' W 076°17'0 0.0
2018-Feb-19 09:00N 36°49' W 076°17'0 0.0
2018-Feb-19 08:31N 36°49' W 076°17'0 0.0
2018-Feb-19 08:00N 36°49' W 076°17'0 0.0
2018-Feb-19 07:30N 36°49' W 076°17'0 0.0
2018-Feb-19 07:00N 36°49' W 076°17'0 0.0
2018-Feb-19 06:31N 36°49' W 076°17'0 0.0
2018-Feb-19 06:00N 36°49' W 076°17'0 0.0
2018-Feb-19 05:31N 36°49' W 076°17'0 0.0
2018-Feb-19 05:00N 36°49' W 076°17'0 0.0
2018-Feb-19 04:30N 36°49' W 076°17'0 0.0
2018-Feb-19 04:00N 36°49' W 076°17'0 0.0
2018-Feb-19 03:30N 36°49' W 076°17'0 0.0
2018-Feb-19 03:00N 36°49' W 076°17'0 0.0
2018-Feb-19 02:30N 36°49' W 076°17'0 0.0
2018-Feb-19 02:00N 36°49' W 076°17'0 0.0
2018-Feb-19 01:31N 36°49' W 076°17'0 0.0
2018-Feb-19 01:01N 36°49' W 076°17'0 0.0
2018-Feb-19 00:31N 36°49' W 076°17'0 0.0
2018-Feb-19 00:00N 36°49' W 076°17'0 0.0
2018-Feb-18 23:31N 36°49' W 076°17'0 0.0
2018-Feb-18 23:01N 36°49' W 076°17'0 0.0
2018-Feb-18 22:30N 36°49' W 076°17'0 0.0
2018-Feb-18 22:01N 36°49' W 076°17'0 0.0
2018-Feb-18 21:31N 36°49' W 076°17'0 0.0
2018-Feb-18 21:01N 36°49' W 076°17'0 0.0
2018-Feb-18 20:31N 36°49' W 076°17'0 0.0
2018-Feb-18 20:01N 36°49' W 076°17'0 0.0
2018-Feb-18 19:31N 36°49' W 076°17'0 0.0
2018-Feb-18 19:00N 36°49' W 076°17'0 0.0
2018-Feb-18 18:30N 36°49' W 076°17'0 0.0
2018-Feb-18 18:00N 36°49' W 076°17'0 0.0
2018-Feb-18 17:30N 36°49' W 076°17'0 0.0
2018-Feb-18 17:01N 36°49' W 076°17'0 0.0
2018-Feb-18 16:30N 36°49' W 076°17'0 0.0
2018-Feb-18 16:00N 36°49' W 076°17'0 0.0
2018-Feb-18 15:30N 36°49' W 076°17'0 0.0
2018-Feb-18 15:00N 36°49' W 076°17'0 0.0
2018-Feb-18 14:31N 36°49' W 076°17'0 0.0
2018-Feb-18 14:00N 36°49' W 076°17'0 0.0
2018-Feb-18 13:31N 36°49' W 076°17'0 0.0
2018-Feb-18 13:00N 36°49' W 076°17'0 0.0
2018-Feb-18 12:30N 36°49' W 076°17'0 0.0
2018-Feb-18 12:00N 36°49' W 076°17'0 0.0
2018-Feb-18 11:30N 36°49' W 076°17'0 0.0
2018-Feb-18 11:01N 36°49' W 076°17'0 0.0
2018-Feb-18 10:30N 36°49' W 076°17'0 0.0
2018-Feb-18 10:00N 36°49' W 076°17'0 0.0
2018-Feb-18 09:31N 36°49' W 076°17'0 0.0
2018-Feb-18 09:00N 36°49' W 076°17'0 0.0
2018-Feb-18 08:31N 36°49' W 076°17'0 0.0
2018-Feb-18 08:01N 36°49' W 076°17'0 0.0
2018-Feb-18 07:31N 36°49' W 076°17'0 0.0
2018-Feb-18 07:01N 36°49' W 076°17'0 0.0
2018-Feb-18 06:31N 36°49' W 076°17'0 0.0
2018-Feb-18 06:00N 36°49' W 076°17'0 0.0
2018-Feb-18 05:30N 36°49' W 076°17'0 0.0
2018-Feb-18 05:01N 36°49' W 076°17'0 0.0
2018-Feb-18 04:31N 36°49' W 076°17'0 0.0
2018-Feb-18 04:00N 36°49' W 076°17'0 0.0
2018-Feb-18 03:31N 36°49' W 076°17'0 0.0
2018-Feb-18 03:00N 36°49' W 076°17'0 0.0
2018-Feb-18 02:30N 36°49' W 076°17'0 0.0
2018-Feb-18 02:00N 36°49' W 076°17'0 0.0
2018-Feb-18 01:30N 36°49' W 076°17'0 0.0
2018-Feb-18 01:00N 36°49' W 076°17'0 0.0
2018-Feb-18 00:30N 36°49' W 076°17'0 0.0
2018-Feb-18 00:00N 36°49' W 076°17'0 0.0
2018-Feb-17 23:29N 36°49' W 076°17'0 0.0
2018-Feb-17 22:59N 36°49' W 076°17'0 0.0
2018-Feb-17 22:30N 36°49' W 076°17'0 0.0
2018-Feb-17 22:00N 36°49' W 076°17'0 0.0
2018-Feb-17 21:27N 36°49' W 076°17'0 0.0
2018-Feb-17 21:01N 36°49' W 076°17'0 0.0
2018-Feb-17 20:30N 36°49' W 076°17'0 0.0
2018-Feb-17 20:00N 36°49' W 076°17'0 0.0
2018-Feb-17 19:31N 36°49' W 076°17'0 0.0
2018-Feb-17 19:00N 36°49' W 076°17'0 0.0
2018-Feb-17 18:31N 36°49' W 076°17'0 0.0
2018-Feb-17 18:00N 36°49' W 076°17'0 0.0
2018-Feb-17 17:31N 36°49' W 076°17'0 0.0
2018-Feb-17 17:00N 36°49' W 076°17'0 0.0
2018-Feb-17 16:31N 36°49' W 076°17'0 0.0
2018-Feb-17 16:00N 36°49' W 076°17'0 0.2
2018-Feb-17 15:30N 36°48' W 076°17'1 1.3
2018-Feb-17 15:01N 36°49' W 076°17'0 0.0
2018-Feb-17 14:30N 36°49' W 076°17'0 0.0
2018-Feb-17 14:00N 36°49' W 076°17'1 1.3
2018-Feb-17 13:31N 36°49' W 076°17'0 0.0
2018-Feb-17 13:00N 36°49' W 076°17'1 2.1
2018-Feb-17 12:30N 36°48' W 076°18'1 1.8
2018-Feb-17 12:00N 36°47' W 076°18'0 0.0
2018-Feb-17 11:30N 36°47' W 076°18'0 0.0
2018-Feb-17 11:01N 36°47' W 076°18'0 0.0
2018-Feb-17 10:30N 36°47' W 076°18'0 0.0
2018-Feb-17 10:00N 36°47' W 076°18'0 0.0
2018-Feb-17 09:31N 36°47' W 076°18'0 0.2
2018-Feb-17 09:00N 36°47' W 076°18'3 4.6
2018-Feb-17 08:26N 36°44' W 076°17'2 2.7
2018-Feb-17 07:38N 36°43' W 076°15'0 0.0
2018-Feb-15 04:01N 36°43' W 076°14'0 3.3
2018-Feb-15 03:59N 36°43' W 076°14'1 1.1
2018-Feb-15 03:29N 36°43' W 076°15'1 2.4
2018-Feb-15 03:01N 36°44' W 076°16'2 3.1
2018-Feb-15 02:31N 36°45' W 076°18'2 3.9
2018-Feb-15 02:00N 36°47' W 076°18'2 3.0
2018-Feb-15 01:30N 36°48' W 076°18'2 4.5
2018-Feb-15 01:00N 36°50' W 076°18'3 5.5
2018-Feb-15 00:24N 36°53' W 076°20'3 6.1
2018-Feb-14 23:58N 36°56' W 076°20'3 5.7
2018-Feb-14 23:28N 36°59' W 076°20'3 5.9
2018-Feb-14 22:57N 37°00' W 076°17'3 5.1
2018-Feb-14 22:27N 37°02' W 076°14'3 5.1
2018-Feb-14 21:56N 37°05' W 076°13'3 5.8
2018-Feb-14 21:26N 37°07' W 076°12'99 5.7
2018-Feb-14 04:06N 38°46' W 076°28'1 5.7
2018-Feb-14 03:59N 38°46' W 076°28'  
Track history (hours):
 
Tides and Currents Weather Stations Pressure Air Temp Water Temp Dewpoint Dewpoint Depression Visibility Wind Speed Wind Dir Waves Ship Positions

St. James

Owner: St James Services LLC, Convent, LA. More information available from US FCC via Universal Licensing System and Coast Guard Vessel Documentation Center.

Last reported at 2018-Feb-24 03:54 UTC. Time now 2018-Feb-25 17:49 UTC.
Position N 36°57' W 076°22'.

Length 23 m; draft 3 m.

Type: Other ship. MMSI: 367517550.

Date/timePositionNaut miles runAvg speedWind from/ knotsBaromVisibWave heightAir tempDewpointWater temp
2018-Feb-24 03:54N 36°57' W 076°22'3 5.0
2018-Feb-24 03:20N 36°54' W 076°20'2 4.5
2018-Feb-24 02:59N 36°53' W 076°20'1 1.2
2018-Feb-24 02:12N 36°52' W 076°21'1 2.9
2018-Feb-24 01:59N 36°52' W 076°20'3 5.9
2018-Feb-24 01:30N 36°50' W 076°18'2 4.0
2018-Feb-24 01:00N 36°49' W 076°17'1 2.4
2018-Feb-24 00:30N 36°47' W 076°18'2 3.1
2018-Feb-24 00:00N 36°46' W 076°18'0 0.0
2018-Feb-23 23:30N 36°46' W 076°18'0 0.3
2018-Feb-23 23:00N 36°46' W 076°18'1 1.5
2018-Feb-23 22:30N 36°45' W 076°18'0 0.4
2018-Feb-23 22:00N 36°45' W 076°18'2 3.5
2018-Feb-23 21:30N 36°44' W 076°16'1 1.8
2018-Feb-23 20:42N 36°43' W 076°15'0 0.2
2018-Feb-23 20:25N 36°43' W 076°15'0 0.0
2018-Feb-22 23:17N 36°43' W 076°14'1 1.4
2018-Feb-22 22:44N 36°44' W 076°15'1 3.3
2018-Feb-22 22:30N 36°44' W 076°16'2 3.3
2018-Feb-22 22:00N 36°45' W 076°18'2 3.7
2018-Feb-22 21:30N 36°46' W 076°18'1 2.3
2018-Feb-22 21:00N 36°47' W 076°18'1 2.2
2018-Feb-22 20:30N 36°48' W 076°17'0 0.3
2018-Feb-22 20:00N 36°49' W 076°17'0 0.0
2018-Feb-22 19:30N 36°49' W 076°17'0 0.0
2018-Feb-22 19:00N 36°49' W 076°17'0 0.0
2018-Feb-22 18:30N 36°49' W 076°17'0 0.0
2018-Feb-22 18:00N 36°49' W 076°17'0 0.0
2018-Feb-22 17:30N 36°49' W 076°17'3 5.5
2018-Feb-22 16:59N 36°51' W 076°18'4 6.5
2018-Feb-22 16:25N 36°55' W 076°20'3 6.0
2018-Feb-22 15:56N 36°57' W 076°20'0 0.2
2018-Feb-22 15:29N 36°57' W 076°20'1 1.1
2018-Feb-22 14:54N 36°57' W 076°21'0 0.3
2018-Feb-22 14:24N 36°57' W 076°21'0 0.1
2018-Feb-22 13:52N 36°57' W 076°21'1 1.7
2018-Feb-22 13:24N 36°56' W 076°20'4 6.4
2018-Feb-22 12:50N 36°53' W 076°20'2 5.9
2018-Feb-22 12:29N 36°51' W 076°18'3 4.9
2018-Feb-22 11:53N 36°50' W 076°15'0 0.4
2018-Feb-22 11:30N 36°50' W 076°15'1 2.6
2018-Feb-22 11:00N 36°50' W 076°17'2 3.9
2018-Feb-22 10:30N 36°49' W 076°17'0 0.0
2018-Feb-21 21:07N 36°49' W 076°17'0 0.0
2018-Feb-21 21:00N 36°49' W 076°17'1 1.2
2018-Feb-21 20:30N 36°49' W 076°17'2 3.1
2018-Feb-21 19:43N 36°51' W 076°19'1 5.8
2018-Feb-21 19:30N 36°50' W 076°18'3 5.5
2018-Feb-21 19:00N 36°48' W 076°18'2 3.1
2018-Feb-21 18:30N 36°46' W 076°18'0 0.3
2018-Feb-21 18:00N 36°46' W 076°18'0 0.0
2018-Feb-21 17:30N 36°46' W 076°18'1 1.6
2018-Feb-21 17:00N 36°47' W 076°18'1 2.6
2018-Feb-21 16:30N 36°48' W 076°18'3 6.0
2018-Feb-21 16:00N 36°51' W 076°18'1 2.9
2018-Feb-21 15:30N 36°52' W 076°19'1 2.2
2018-Feb-21 14:55N 36°52' W 076°21'2 4.0
2018-Feb-21 14:30N 36°54' W 076°20'2 2.8
2018-Feb-21 13:42N 36°56' W 076°20'0 0.1
2018-Feb-21 13:27N 36°56' W 076°20'0 0.2
2018-Feb-21 12:58N 36°56' W 076°20'0 0.1
2018-Feb-21 12:28N 36°56' W 076°20'0 0.3
2018-Feb-21 11:56N 36°56' W 076°20'2 3.9
2018-Feb-21 11:27N 36°54' W 076°20'2 4.6
2018-Feb-21 10:57N 36°52' W 076°19'2 5.0
2018-Feb-21 10:30N 36°50' W 076°17'2 2.6
2018-Feb-21 09:49N 36°50' W 076°15'1 3.9
2018-Feb-21 09:30N 36°50' W 076°16'2 3.9
2018-Feb-21 09:00N 36°49' W 076°17'0 0.0
2018-Feb-20 15:53N 36°49' W 076°17'0 0.0
2018-Feb-20 15:30N 36°49' W 076°17'0 0.0
2018-Feb-20 15:01N 36°49' W 076°17'2 3.9
2018-Feb-20 14:29N 36°51' W 076°18'3 4.8
2018-Feb-20 13:50N 36°52' W 076°21'0 0.2
2018-Feb-20 13:28N 36°52' W 076°21'0 0.6
2018-Feb-20 12:59N 36°53' W 076°21'3 5.8
2018-Feb-20 12:31N 36°51' W 076°18'2 4.8
2018-Feb-20 12:01N 36°49' W 076°17'0 0.0
2018-Feb-20 11:30N 36°49' W 076°17'0 0.0
2018-Feb-20 11:01N 36°49' W 076°17'0 0.0
2018-Feb-20 10:31N 36°49' W 076°17'0 0.0
2018-Feb-20 10:00N 36°49' W 076°17'0 0.0
2018-Feb-20 09:31N 36°49' W 076°17'0 0.0
2018-Feb-20 09:01N 36°49' W 076°17'0 0.0
2018-Feb-20 08:30N 36°49' W 076°17'0 0.0
2018-Feb-20 08:00N 36°49' W 076°17'0 0.0
2018-Feb-20 07:30N 36°49' W 076°17'0 0.0
2018-Feb-20 07:00N 36°49' W 076°17'0 0.0
2018-Feb-20 06:31N 36°49' W 076°17'0 0.0
2018-Feb-20 06:00N 36°49' W 076°17'0 0.0
2018-Feb-20 05:30N 36°49' W 076°17'0 0.0
2018-Feb-20 05:00N 36°49' W 076°17'0 0.0
2018-Feb-20 04:31N 36°49' W 076°17'0 0.0
2018-Feb-20 04:00N 36°49' W 076°17'0 0.0
2018-Feb-20 03:30N 36°49' W 076°17'0 0.0
2018-Feb-20 03:01N 36°49' W 076°17'0 0.0
2018-Feb-20 02:30N 36°49' W 076°17'0 0.0
2018-Feb-20 02:00N 36°49' W 076°17'0 0.0
2018-Feb-20 01:31N 36°49' W 076°17'0 0.0
2018-Feb-20 01:00N 36°49' W 076°17'0 0.0
2018-Feb-20 00:30N 36°49' W 076°17'0 0.0
2018-Feb-20 00:00N 36°49' W 076°17'0 0.0
2018-Feb-19 23:30N 36°49' W 076°17'0 0.0
2018-Feb-19 23:01N 36°49' W 076°17'0 0.0
2018-Feb-19 22:31N 36°49' W 076°17'0 0.0
2018-Feb-19 22:00N 36°49' W 076°17'0 0.0
2018-Feb-19 21:30N 36°49' W 076°17'0 0.0
2018-Feb-19 21:00N 36°49' W 076°17'0 0.0
2018-Feb-19 20:30N 36°49' W 076°17'0 0.0
2018-Feb-19 20:00N 36°49' W 076°17'0 0.0
2018-Feb-19 19:31N 36°49' W 076°17'0 0.0
2018-Feb-19 19:00N 36°49' W 076°17'0 0.0
2018-Feb-19 18:30N 36°49' W 076°17'0 0.0
2018-Feb-19 18:01N 36°49' W 076°17'0 0.0
2018-Feb-19 17:31N 36°49' W 076°17'0 0.0
2018-Feb-19 17:00N 36°49' W 076°17'0 0.0
2018-Feb-19 16:31N 36°49' W 076°17'0 0.0
2018-Feb-19 16:01N 36°49' W 076°17'0 0.0
2018-Feb-19 15:31N 36°49' W 076°17'0 0.0
2018-Feb-19 15:01N 36°49' W 076°17'0 0.0
2018-Feb-19 14:31N 36°49' W 076°17'0 0.0
2018-Feb-19 14:01N 36°49' W 076°17'0 0.0
2018-Feb-19 13:31N 36°49' W 076°17'0 0.0
2018-Feb-19 13:00N 36°49' W 076°17'0 0.0
2018-Feb-19 12:31N 36°49' W 076°17'0 0.0
2018-Feb-19 12:01N 36°49' W 076°17'0 0.0
2018-Feb-19 11:31N 36°49' W 076°17'0 0.0
2018-Feb-19 11:00N 36°49' W 076°17'0 0.0
2018-Feb-19 10:31N 36°49' W 076°17'0 0.0
2018-Feb-19 10:01N 36°49' W 076°17'0 0.0
2018-Feb-19 09:30N 36°49' W 076°17'0 0.0
2018-Feb-19 09:00N 36°49' W 076°17'0 0.0
2018-Feb-19 08:31N 36°49' W 076°17'0 0.0
2018-Feb-19 08:00N 36°49' W 076°17'0 0.0
2018-Feb-19 07:30N 36°49' W 076°17'0 0.0
2018-Feb-19 07:00N 36°49' W 076°17'0 0.0
2018-Feb-19 06:31N 36°49' W 076°17'0 0.0
2018-Feb-19 06:00N 36°49' W 076°17'0 0.0
2018-Feb-19 05:31N 36°49' W 076°17'0 0.0
2018-Feb-19 05:00N 36°49' W 076°17'0 0.0
2018-Feb-19 04:30N 36°49' W 076°17'0 0.0
2018-Feb-19 04:00N 36°49' W 076°17'0 0.0
2018-Feb-19 03:30N 36°49' W 076°17'0 0.0
2018-Feb-19 03:00N 36°49' W 076°17'0 0.0
2018-Feb-19 02:30N 36°49' W 076°17'0 0.0
2018-Feb-19 02:00N 36°49' W 076°17'0 0.0
2018-Feb-19 01:31N 36°49' W 076°17'0 0.0
2018-Feb-19 01:01N 36°49' W 076°17'0 0.0
2018-Feb-19 00:31N 36°49' W 076°17'0 0.0
2018-Feb-19 00:00N 36°49' W 076°17'0 0.0
2018-Feb-18 23:31N 36°49' W 076°17'0 0.0
2018-Feb-18 23:01N 36°49' W 076°17'0 0.0
2018-Feb-18 22:30N 36°49' W 076°17'0 0.0
2018-Feb-18 22:01N 36°49' W 076°17'0 0.0
2018-Feb-18 21:31N 36°49' W 076°17'0 0.0
2018-Feb-18 21:01N 36°49' W 076°17'0 0.0
2018-Feb-18 20:31N 36°49' W 076°17'0 0.0
2018-Feb-18 20:01N 36°49' W 076°17'0 0.0
2018-Feb-18 19:31N 36°49' W 076°17'0 0.0
2018-Feb-18 19:00N 36°49' W 076°17'0 0.0
2018-Feb-18 18:30N 36°49' W 076°17'0 0.0
2018-Feb-18 18:00N 36°49' W 076°17'0 0.0
2018-Feb-18 17:30N 36°49' W 076°17'0 0.0
2018-Feb-18 17:01N 36°49' W 076°17'0 0.0
2018-Feb-18 16:30N 36°49' W 076°17'0 0.0
2018-Feb-18 16:00N 36°49' W 076°17'0 0.0
2018-Feb-18 15:30N 36°49' W 076°17'0 0.0
2018-Feb-18 15:00N 36°49' W 076°17'0 0.0
2018-Feb-18 14:31N 36°49' W 076°17'0 0.0
2018-Feb-18 14:00N 36°49' W 076°17'0 0.0
2018-Feb-18 13:31N 36°49' W 076°17'0 0.0
2018-Feb-18 13:00N 36°49' W 076°17'0 0.0
2018-Feb-18 12:30N 36°49' W 076°17'0 0.0
2018-Feb-18 12:00N 36°49' W 076°17'0 0.0
2018-Feb-18 11:30N 36°49' W 076°17'0 0.0
2018-Feb-18 11:01N 36°49' W 076°17'0 0.0
2018-Feb-18 10:30N 36°49' W 076°17'0 0.0
2018-Feb-18 10:00N 36°49' W 076°17'0 0.0
2018-Feb-18 09:31N 36°49' W 076°17'0 0.0
2018-Feb-18 09:00N 36°49' W 076°17'0 0.0
2018-Feb-18 08:31N 36°49' W 076°17'0 0.0
2018-Feb-18 08:01N 36°49' W 076°17'0 0.0
2018-Feb-18 07:31N 36°49' W 076°17'0 0.0
2018-Feb-18 07:01N 36°49' W 076°17'0 0.0
2018-Feb-18 06:31N 36°49' W 076°17'0 0.0
2018-Feb-18 06:00N 36°49' W 076°17'0 0.0
2018-Feb-18 05:30N 36°49' W 076°17'0 0.0
2018-Feb-18 05:01N 36°49' W 076°17'0 0.0
2018-Feb-18 04:31N 36°49' W 076°17'0 0.0
2018-Feb-18 04:00N 36°49' W 076°17'0 0.0
2018-Feb-18 03:31N 36°49' W 076°17'0 0.0
2018-Feb-18 03:00N 36°49' W 076°17'0 0.0
2018-Feb-18 02:30N 36°49' W 076°17'0 0.0
2018-Feb-18 02:00N 36°49' W 076°17'0 0.0
2018-Feb-18 01:30N 36°49' W 076°17'0 0.0
2018-Feb-18 01:00N 36°49' W 076°17'0 0.0
2018-Feb-18 00:30N 36°49' W 076°17'0 0.0
2018-Feb-18 00:00N 36°49' W 076°17'0 0.0
2018-Feb-17 23:29N 36°49' W 076°17'0 0.0
2018-Feb-17 22:59N 36°49' W 076°17'0 0.0
2018-Feb-17 22:30N 36°49' W 076°17'0 0.0
2018-Feb-17 22:00N 36°49' W 076°17'0 0.0
2018-Feb-17 21:27N 36°49' W 076°17'0 0.0
2018-Feb-17 21:01N 36°49' W 076°17'0 0.0
2018-Feb-17 20:30N 36°49' W 076°17'0 0.0
2018-Feb-17 20:00N 36°49' W 076°17'0 0.0
2018-Feb-17 19:31N 36°49' W 076°17'0 0.0
2018-Feb-17 19:00N 36°49' W 076°17'0 0.0
2018-Feb-17 18:31N 36°49' W 076°17'0 0.0
2018-Feb-17 18:00N 36°49' W 076°17'0 0.0
2018-Feb-17 17:31N 36°49' W 076°17'0 0.0
2018-Feb-17 17:00N 36°49' W 076°17'0 0.0
2018-Feb-17 16:31N 36°49' W 076°17'0 0.0
2018-Feb-17 16:00N 36°49' W 076°17'0 0.2
2018-Feb-17 15:30N 36°48' W 076°17'1 1.3
2018-Feb-17 15:01N 36°49' W 076°17'0 0.0
2018-Feb-17 14:30N 36°49' W 076°17'0 0.0
2018-Feb-17 14:00N 36°49' W 076°17'1 1.3
2018-Feb-17 13:31N 36°49' W 076°17'0 0.0
2018-Feb-17 13:00N 36°49' W 076°17'1 2.1
2018-Feb-17 12:30N 36°48' W 076°18'1 1.8
2018-Feb-17 12:00N 36°47' W 076°18'0 0.0
2018-Feb-17 11:30N 36°47' W 076°18'0 0.0
2018-Feb-17 11:01N 36°47' W 076°18'0 0.0
2018-Feb-17 10:30N 36°47' W 076°18'0 0.0
2018-Feb-17 10:00N 36°47' W 076°18'0 0.0
2018-Feb-17 09:31N 36°47' W 076°18'0 0.2
2018-Feb-17 09:00N 36°47' W 076°18'3 4.6
2018-Feb-17 08:26N 36°44' W 076°17'2 2.7
2018-Feb-17 07:38N 36°43' W 076°15'0 0.0
2018-Feb-15 04:01N 36°43' W 076°14'0 3.3
2018-Feb-15 03:59N 36°43' W 076°14'1 1.1
2018-Feb-15 03:29N 36°43' W 076°15'1 2.4
2018-Feb-15 03:01N 36°44' W 076°16'2 3.1
2018-Feb-15 02:31N 36°45' W 076°18'2 3.9
2018-Feb-15 02:00N 36°47' W 076°18'2 3.0
2018-Feb-15 01:30N 36°48' W 076°18'2 4.5
2018-Feb-15 01:00N 36°50' W 076°18'3 5.5
2018-Feb-15 00:24N 36°53' W 076°20'3 6.1
2018-Feb-14 23:58N 36°56' W 076°20'3 5.7
2018-Feb-14 23:28N 36°59' W 076°20'3 5.9
2018-Feb-14 22:57N 37°00' W 076°17'3 5.1
2018-Feb-14 22:27N 37°02' W 076°14'3 5.1
2018-Feb-14 21:56N 37°05' W 076°13'3 5.8
2018-Feb-14 21:26N 37°07' W 076°12'99 5.7
2018-Feb-14 04:06N 38°46' W 076°28'1 5.7
2018-Feb-14 03:59N 38°46' W 076°28'  

Dump ship's entire track history